메인 페이지
METAR-TAF:

METAR-TAF

공항 :

모로니, 코모로

위도: 11-32S, 경도: 043-16E, 고도: 29m

현재 날씨관측

예보는 3 시간 0분 전, 22:00시(UTC)에 발표되었습니다.
4kt북동풍과 남동풍을 오가는
온도 27°C
습도 79%
기압 1012 hPa
시정 10km 이상
고도 2000ft 상공 구름 조금

METAR: FMCH 092200Z 10004KT 050V130 9999 FEW020 27/23 Q1012 NOSIG

시각: 04:00 (01:00 UTC)

예보

예보는 8 시간 0분 전, 17:00시(UTC)에 발표되었습니다.
예보 대상 시간: 09일 18시부터 10일 24시까지 (UTC)
4kt
시정 10km 이상
고도 2000ft 상공 구름 조금
고도 3000ft 상공 구름 보통
확률 40% :
일시적
09일 18시부터 09일 24시까지 (UTC)
시정: 4000m
소나기
전환 중
10일 05시부터 10일 07시까지 (UTC)
14kt
확률 30% :
일시적
10일 09시부터 10일 15시까지 (UTC)
시정: 4500m
고도 2000ft 상공 구름 조금, 적란운.
고도 3000ft 상공 구름 많음
뇌우, 소나기

TAF: FMCH 091700Z 0918/1024 10004KT 9999 FEW020 SCT030 PROB40 TEMPO 0918/0924 4000 SHRA BECMG 1005/1007 10014KT PROB30 TEMPO 1009/1015 4500 TS SHRA FEW020CB BKN030

4,000개 이상의 공항 관측 자료 및 예보 (METAR 및 TAF 보고).

지도상에서 검색 가능한 기상관측소가 노란 점과 빨간 점으로 표시되어 있습니다.

기상관측소 명을 보려면 표시 위로 마우스를 이동하세요.

날씨 관측과 예보를 보려면 클릭하세요.

지도 변경 : 확대하려면 엑스 표시가 있는 녹색 버튼, 축소하려면 빼기 표시가 있는 녹색 버튼, 다음 페이지의 지도를 보려면 녹색 화살표를 클릭하세요.


METAR-TAF: